Time,TemperatureF,DewpointF,PressureIn,WindDirection,WindDirectionDegrees,WindSpeedMPH,WindSpeedGustMPH,Humidity,HourlyPrecipIn,Conditions,Clouds,dailyrainin,SolarRadiationWatts/m^2,SoftwareType,DateUTC
2013-07-08 00:22:00,52.0,49.0,-100.00,SE,142,2.0,7.0,89,0.00,,,0.02,3.000000,,2013-07-08 08:22:00,
2013-07-08 00:33:00,52.0,49.0,-100.00,SE,142,2.0,7.0,89,0.00,,,0.02,3.000000,,2013-07-08 08:33:00,
2013-07-08 00:42:00,52.0,49.0,-100.00,SE,142,2.0,7.0,89,0.00,,,0.02,3.000000,,2013-07-08 08:42:00,
2013-07-08 00:52:00,52.0,49.0,-100.00,SE,142,2.0,7.0,89,0.00,,,0.02,3.000000,,2013-07-08 08:52:00,
2013-07-08 01:11:00,50.0,47.0,-100.00,East,91,0.0,3.0,88,-99.99,,,-99.99,,,2013-07-08 09:11:00,
2013-07-08 01:22:00,50.0,47.0,-100.00,East,91,0.0,4.0,88,0.00,,,-99.99,0.000000,,2013-07-08 09:22:00,
2013-07-08 01:34:00,50.0,47.0,-100.00,East,91,0.0,4.0,88,0.00,,,-99.99,0.000000,,2013-07-08 09:34:00,
2013-07-08 01:43:00,50.0,47.0,-100.00,East,91,0.0,4.0,88,0.00,,,-99.99,0.000000,,2013-07-08 09:43:00,
2013-07-08 01:52:00,50.0,47.0,-100.00,East,91,0.0,4.0,88,0.00,,,-99.99,0.000000,,2013-07-08 09:52:00,
2013-07-08 02:22:00,48.0,46.0,-100.00,ENE,62,0.0,2.0,93,0.00,,,0.02,0.000000,,2013-07-08 10:22:00,
2013-07-08 02:34:00,48.0,46.0,-100.00,ENE,62,0.0,2.0,93,0.00,,,0.02,0.000000,,2013-07-08 10:34:00,
2013-07-08 02:43:00,48.0,46.0,-100.00,ENE,62,0.0,2.0,93,0.00,,,0.02,0.000000,,2013-07-08 10:43:00,
2013-07-08 02:53:00,48.0,46.0,-100.00,ENE,62,0.0,2.0,93,0.00,,,0.02,0.000000,,2013-07-08 10:53:00,
2013-07-08 03:22:00,45.0,44.0,-100.00,East,97,0.0,0.0,97,0.00,,,0.02,0.000000,,2013-07-08 11:22:00,
2013-07-08 03:33:00,45.0,44.0,-100.00,East,97,0.0,0.0,97,0.00,,,0.02,0.000000,,2013-07-08 11:33:00,
2013-07-08 03:43:00,45.0,44.0,-100.00,East,97,0.0,0.0,97,0.00,,,0.02,0.000000,,2013-07-08 11:43:00,
2013-07-08 03:52:00,45.0,44.0,-100.00,East,97,0.0,0.0,97,0.00,,,0.02,0.000000,,2013-07-08 11:52:00,
2013-07-08 04:11:00,45.0,44.0,-100.00,East,80,1.0,2.0,98,-99.99,,,-99.99,,,2013-07-08 12:11:00,
2013-07-08 04:22:00,45.0,44.0,-100.00,East,80,1.0,2.0,98,0.00,,,0.01,0.000000,,2013-07-08 12:22:00,
2013-07-08 04:33:00,45.0,44.0,-100.00,East,80,1.0,2.0,98,0.00,,,0.01,0.000000,,2013-07-08 12:33:00,
2013-07-08 04:43:00,45.0,44.0,-100.00,East,80,1.0,2.0,98,0.00,,,0.01,0.000000,,2013-07-08 12:43:00,
2013-07-08 04:53:00,45.0,44.0,-100.00,East,80,1.0,2.0,98,0.00,,,0.01,0.000000,,2013-07-08 12:53:00,
2013-07-08 05:33:00,47.0,46.0,-100.00,SSW,192,2.0,5.0,97,0.00,,,0.01,0.000000,,2013-07-08 13:33:00,
2013-07-08 05:42:00,47.0,46.0,-100.00,SSW,192,2.0,5.0,97,0.00,,,0.01,0.000000,,2013-07-08 13:42:00,
2013-07-08 05:53:00,47.0,46.0,-100.00,SSW,192,2.0,5.0,97,0.00,,,0.01,0.000000,,2013-07-08 13:53:00,
2013-07-08 06:12:00,49.0,48.0,-100.00,WSW,245,3.0,4.0,95,-99.99,,,-99.99,,,2013-07-08 14:12:00,
2013-07-08 06:22:00,49.0,48.0,-100.00,WSW,245,3.0,5.0,95,0.00,,,0.01,9.000000,,2013-07-08 14:22:00,
2013-07-08 06:33:00,49.0,48.0,-100.00,WSW,245,3.0,5.0,95,0.00,,,0.01,9.000000,,2013-07-08 14:33:00,
2013-07-08 06:43:00,49.0,48.0,-100.00,WSW,245,3.0,5.0,95,0.00,,,0.01,9.000000,,2013-07-08 14:43:00,
2013-07-08 06:53:00,49.0,48.0,-100.00,WSW,245,3.0,5.0,95,0.00,,,0.01,9.000000,,2013-07-08 14:53:00,
2013-07-08 07:33:00,48.0,47.0,-100.00,SSW,212,2.0,7.0,97,0.02,,,-99.99,18.000000,,2013-07-08 15:33:00,
2013-07-08 07:43:00,48.0,47.0,-100.00,SSW,212,2.0,7.0,97,0.02,,,-99.99,18.000000,,2013-07-08 15:43:00,
2013-07-08 07:53:00,48.0,47.0,-100.00,SSW,212,2.0,7.0,97,0.02,,,-99.99,18.000000,,2013-07-08 15:53:00,
2013-07-08 08:22:00,49.0,48.0,-100.00,South,182,1.0,5.0,97,0.01,,,0.03,47.000000,,2013-07-08 16:22:00,
2013-07-08 08:33:00,49.0,48.0,-100.00,South,182,1.0,5.0,97,0.01,,,0.03,47.000000,,2013-07-08 16:33:00,
2013-07-08 08:43:00,49.0,48.0,-100.00,South,182,1.0,5.0,97,0.01,,,0.03,47.000000,,2013-07-08 16:43:00,
2013-07-08 08:52:00,49.0,48.0,-100.00,South,182,1.0,5.0,97,0.01,,,0.03,47.000000,,2013-07-08 16:52:00,
2013-07-08 09:44:00,50.0,49.0,-100.00,SSW,199,1.0,4.0,95,0.00,,,0.03,79.000000,,2013-07-08 17:44:00,
2013-07-08 09:54:00,50.0,49.0,-100.00,SSW,199,1.0,4.0,95,0.00,,,0.03,79.000000,,2013-07-08 17:54:00,
2013-07-08 10:27:00,52.0,49.0,-100.00,SSW,208,2.0,5.0,89,0.00,,,0.03,153.000000,,2013-07-08 18:27:00,
2013-07-08 10:36:00,52.0,49.0,-100.00,SSW,208,2.0,5.0,89,0.00,,,0.03,153.000000,,2013-07-08 18:36:00,
2013-07-08 10:45:00,52.0,49.0,-100.00,SSW,208,2.0,5.0,89,0.00,,,0.03,153.000000,,2013-07-08 18:45:00,
2013-07-08 10:54:00,52.0,49.0,-100.00,SSW,208,2.0,5.0,89,0.00,,,0.03,153.000000,,2013-07-08 18:54:00,
2013-07-08 11:45:00,52.0,48.0,-100.00,West,278,2.0,6.0,86,0.00,,,0.03,155.000000,,2013-07-08 19:45:00,
2013-07-08 12:54:00,55.0,48.0,-100.00,SSE,150,2.0,5.0,78,0.00,,,0.03,261.000000,,2013-07-08 20:54:00,
2013-07-08 13:26:00,58.0,49.0,-100.00,NW,324,2.0,5.0,72,0.00,,,0.03,294.000000,,2013-07-08 21:26:00,
2013-07-08 13:37:00,58.0,49.0,-100.00,NW,324,2.0,5.0,72,0.00,,,0.03,294.000000,,2013-07-08 21:37:00,
2013-07-08 13:45:00,58.0,49.0,-100.00,NW,324,2.0,5.0,72,0.00,,,0.03,294.000000,,2013-07-08 21:45:00,
2013-07-08 14:18:00,58.0,47.0,-100.00,WSW,250,2.0,4.0,68,-99.99,,,-99.99,,,2013-07-08 22:18:00,
2013-07-08 14:37:00,58.0,47.0,-100.00,WSW,250,2.0,5.0,68,0.00,,,0.03,299.000000,,2013-07-08 22:37:00,
2013-07-08 14:47:00,58.0,47.0,-100.00,WSW,250,2.0,5.0,68,0.00,,,0.03,299.000000,,2013-07-08 22:47:00,
2013-07-08 14:54:00,58.0,47.0,-100.00,WSW,250,2.0,5.0,68,0.00,,,0.03,299.000000,,2013-07-08 22:54:00,
2013-07-08 15:54:00,61.0,46.0,-100.00,WNW,293,3.0,7.0,57,0.00,,,0.03,552.000000,,2013-07-08 23:54:00,
2013-07-08 16:26:00,62.0,48.0,-100.00,West,268,5.0,10.0,61,0.00,,,0.03,523.000000,,2013-07-09 00:26:00,
2013-07-08 16:37:00,62.0,48.0,-100.00,West,268,5.0,10.0,61,0.00,,,0.03,523.000000,,2013-07-09 00:37:00,
2013-07-08 16:45:00,62.0,48.0,-100.00,West,268,5.0,10.0,61,0.00,,,0.03,523.000000,,2013-07-09 00:45:00,
2013-07-08 16:53:00,62.0,48.0,-100.00,West,268,5.0,10.0,61,0.00,,,0.03,523.000000,,2013-07-09 00:53:00,
2013-07-08 17:47:00,62.0,46.0,-100.00,ENE,78,3.0,8.0,56,0.00,,,0.03,366.000000,,2013-07-09 01:47:00,
2013-07-08 18:38:00,60.0,48.0,-100.00,North,4,2.0,4.0,65,0.00,,,0.03,172.000000,,2013-07-09 02:38:00,
2013-07-08 18:47:00,60.0,48.0,-100.00,North,4,2.0,4.0,65,0.00,,,0.03,172.000000,,2013-07-09 02:47:00,
2013-07-08 19:04:00,60.0,48.0,-100.00,North,4,2.0,4.0,65,-99.99,,,-99.99,,,2013-07-09 03:04:00,
2013-07-08 19:46:00,65.0,49.0,-100.00,WNW,285,6.0,10.0,57,0.00,,,0.03,384.000000,,2013-07-09 03:46:00,
2013-07-08 20:11:00,59.0,46.0,-100.00,WSW,251,3.0,10.0,62,-99.99,,,-99.99,,,2013-07-09 04:11:00,
2013-07-08 20:22:00,59.0,46.0,-100.00,WSW,251,3.0,10.0,62,0.00,,,0.03,244.000000,,2013-07-09 04:22:00,
2013-07-08 20:33:00,59.0,46.0,-100.00,WSW,251,3.0,10.0,62,0.00,,,0.03,244.000000,,2013-07-09 04:33:00,
2013-07-08 20:42:00,59.0,46.0,-100.00,WSW,251,3.0,10.0,62,0.00,,,0.03,244.000000,,2013-07-09 04:42:00,
2013-07-08 20:53:00,59.0,46.0,-100.00,WSW,251,3.0,10.0,62,0.00,,,0.03,244.000000,,2013-07-09 04:53:00,
2013-07-08 21:11:00,56.0,48.0,-100.00,South,172,1.0,6.0,75,-99.99,,,-99.99,,,2013-07-09 05:11:00,
2013-07-08 21:22:00,56.0,48.0,-100.00,South,172,1.0,7.0,75,0.00,,,0.03,66.000000,,2013-07-09 05:22:00,
2013-07-08 21:33:00,56.0,48.0,-100.00,South,172,1.0,7.0,75,0.00,,,0.03,66.000000,,2013-07-09 05:33:00,
2013-07-08 21:42:00,56.0,48.0,-100.00,South,172,1.0,7.0,75,0.00,,,0.03,66.000000,,2013-07-09 05:42:00,
2013-07-08 21:52:00,56.0,48.0,-100.00,South,172,1.0,7.0,75,0.00,,,0.03,66.000000,,2013-07-09 05:52:00,
2013-07-08 22:11:00,55.0,48.0,-100.00,South,171,1.0,3.0,78,-99.99,,,-99.99,,,2013-07-09 06:11:00,
2013-07-08 22:22:00,55.0,48.0,-100.00,South,171,1.0,4.0,78,0.00,,,0.03,51.000000,,2013-07-09 06:22:00,
2013-07-08 22:33:00,55.0,48.0,-100.00,South,171,1.0,4.0,78,0.00,,,0.03,51.000000,,2013-07-09 06:33:00,
2013-07-08 22:43:00,55.0,48.0,-100.00,South,171,1.0,4.0,78,0.00,,,0.03,51.000000,,2013-07-09 06:43:00,
2013-07-08 22:53:00,55.0,48.0,-100.00,South,171,1.0,4.0,78,0.00,,,0.03,51.000000,,2013-07-09 06:53:00,
2013-07-08 23:22:00,53.0,49.0,-100.00,NNE,30,0.0,2.0,85,0.00,,,0.03,22.000000,,2013-07-09 07:22:00,
2013-07-08 23:33:00,53.0,49.0,-100.00,NNE,30,0.0,2.0,85,0.00,,,0.03,22.000000,,2013-07-09 07:33:00,
2013-07-08 23:43:00,53.0,49.0,-100.00,NNE,30,0.0,2.0,85,0.00,,,0.03,22.000000,,2013-07-09 07:43:00,
2013-07-08 23:53:00,53.0,49.0,-100.00,NNE,30,0.0,2.0,85,0.00,,,0.03,22.000000,,2013-07-09 07:53:00,